sensor_id;sensor_type;location;lat;lon;timestamp;P1;durP1;ratioP1;P2;durP2;ratioP2
82147;SDS011;71718;50.480;12.110;2024-03-22T00:02:21;10.10;;;9.40;;
82147;SDS011;71718;50.480;12.110;2024-03-22T00:04:46;6.80;;;6.25;;
82147;SDS011;71718;50.480;12.110;2024-03-22T00:07:12;33.95;;;32.20;;
82147;SDS011;71718;50.480;12.110;2024-03-22T00:09:37;9.52;;;9.02;;
82147;SDS011;71718;50.480;12.110;2024-03-22T00:12:02;9.38;;;8.88;;
82147;SDS011;71718;50.480;12.110;2024-03-22T00:14:28;9.85;;;9.00;;
82147;SDS011;71718;50.480;12.110;2024-03-22T00:16:53;10.25;;;9.55;;
82147;SDS011;71718;50.480;12.110;2024-03-22T00:19:19;10.02;;;9.35;;
82147;SDS011;71718;50.480;12.110;2024-03-22T00:21:44;9.15;;;8.60;;
82147;SDS011;71718;50.480;12.110;2024-03-22T00:24:09;10.18;;;9.38;;
82147;SDS011;71718;50.480;12.110;2024-03-22T00:26:35;7.03;;;6.57;;
82147;SDS011;71718;50.480;12.110;2024-03-22T00:29:00;9.88;;;9.23;;
82147;SDS011;71718;50.480;12.110;2024-03-22T00:31:26;10.30;;;9.52;;
82147;SDS011;71718;50.480;12.110;2024-03-22T00:33:52;9.73;;;8.88;;
82147;SDS011;71718;50.480;12.110;2024-03-22T00:36:17;6.70;;;6.32;;
82147;SDS011;71718;50.480;12.110;2024-03-22T00:38:43;9.77;;;9.18;;
82147;SDS011;71718;50.480;12.110;2024-03-22T00:41:08;10.98;;;9.98;;
82147;SDS011;71718;50.480;12.110;2024-03-22T00:43:33;9.90;;;9.20;;
82147;SDS011;71718;50.480;12.110;2024-03-22T00:45:59;10.00;;;9.43;;
82147;SDS011;71718;50.480;12.110;2024-03-22T00:48:24;8.50;;;8.00;;
82147;SDS011;71718;50.480;12.110;2024-03-22T00:50:50;10.68;;;9.95;;
82147;SDS011;71718;50.480;12.110;2024-03-22T00:53:15;9.65;;;8.85;;
82147;SDS011;71718;50.480;12.110;2024-03-22T00:55:40;10.35;;;9.65;;
82147;SDS011;71718;50.480;12.110;2024-03-22T00:58:06;10.68;;;9.38;;
82147;SDS011;71718;50.480;12.110;2024-03-22T01:00:31;9.63;;;8.85;;
82147;SDS011;71718;50.480;12.110;2024-03-22T01:02:57;12.05;;;9.20;;
82147;SDS011;71718;50.480;12.110;2024-03-22T01:05:22;10.07;;;9.27;;
82147;SDS011;71718;50.480;12.110;2024-03-22T01:07:47;10.10;;;8.73;;
82147;SDS011;71718;50.480;12.110;2024-03-22T01:10:13;10.45;;;9.50;;
82147;SDS011;71718;50.480;12.110;2024-03-22T01:12:39;9.90;;;9.20;;
82147;SDS011;71718;50.480;12.110;2024-03-22T01:15:04;10.05;;;8.93;;
82147;SDS011;71718;50.480;12.110;2024-03-22T01:17:31;9.90;;;9.23;;
82147;SDS011;71718;50.480;12.110;2024-03-22T01:19:56;10.32;;;9.45;;
82147;SDS011;71718;50.480;12.110;2024-03-22T01:22:22;8.95;;;8.32;;
82147;SDS011;71718;50.480;12.110;2024-03-22T01:24:47;9.75;;;9.15;;
82147;SDS011;71718;50.480;12.110;2024-03-22T01:27:12;8.93;;;8.40;;
82147;SDS011;71718;50.480;12.110;2024-03-22T01:29:38;9.20;;;8.60;;
82147;SDS011;71718;50.480;12.110;2024-03-22T01:32:03;9.18;;;8.57;;
82147;SDS011;71718;50.480;12.110;2024-03-22T01:34:29;11.57;;;9.77;;
82147;SDS011;71718;50.480;12.110;2024-03-22T01:36:54;10.85;;;9.88;;
82147;SDS011;71718;50.480;12.110;2024-03-22T01:39:20;11.43;;;10.68;;
82147;SDS011;71718;50.480;12.110;2024-03-22T01:41:49;9.52;;;9.02;;
82147;SDS011;71718;50.480;12.110;2024-03-22T01:44:18;10.82;;;10.20;;
82147;SDS011;71718;50.480;12.110;2024-03-22T01:46:43;10.98;;;10.18;;
82147;SDS011;71718;50.480;12.110;2024-03-22T01:49:10;7.88;;;7.20;;
82147;SDS011;71718;50.480;12.110;2024-03-22T01:51:37;10.57;;;9.80;;
82147;SDS011;71718;50.480;12.110;2024-03-22T01:54:03;11.90;;;11.02;;
82147;SDS011;71718;50.480;12.110;2024-03-22T01:56:30;11.18;;;10.15;;
82147;SDS011;71718;50.480;12.110;2024-03-22T01:58:55;9.90;;;9.35;;
82147;SDS011;71718;50.480;12.110;2024-03-22T02:01:21;10.55;;;9.93;;
82147;SDS011;71718;50.480;12.110;2024-03-22T02:03:47;10.55;;;10.00;;
82147;SDS011;71718;50.480;12.110;2024-03-22T02:06:13;10.85;;;10.18;;
82147;SDS011;71718;50.480;12.110;2024-03-22T02:08:38;10.73;;;9.98;;
82147;SDS011;71718;50.480;12.110;2024-03-22T02:11:04;10.13;;;9.52;;
82147;SDS011;71718;50.480;12.110;2024-03-22T02:13:29;9.73;;;9.07;;
82147;SDS011;71718;50.480;12.110;2024-03-22T02:15:55;10.35;;;9.65;;
82147;SDS011;71718;50.480;12.110;2024-03-22T02:18:20;12.02;;;11.43;;
82147;SDS011;71718;50.480;12.110;2024-03-22T02:20:45;12.95;;;12.23;;
82147;SDS011;71718;50.480;12.110;2024-03-22T02:23:11;12.60;;;11.90;;
82147;SDS011;71718;50.480;12.110;2024-03-22T02:25:36;9.95;;;9.45;;
82147;SDS011;71718;50.480;12.110;2024-03-22T02:28:02;11.23;;;10.43;;
82147;SDS011;71718;50.480;12.110;2024-03-22T02:30:27;10.32;;;9.73;;
82147;SDS011;71718;50.480;12.110;2024-03-22T02:32:53;11.27;;;10.48;;
82147;SDS011;71718;50.480;12.110;2024-03-22T02:35:18;11.18;;;10.18;;
82147;SDS011;71718;50.480;12.110;2024-03-22T02:37:43;12.93;;;10.77;;
82147;SDS011;71718;50.480;12.110;2024-03-22T02:40:09;11.05;;;10.30;;
82147;SDS011;71718;50.480;12.110;2024-03-22T02:42:35;7.97;;;7.57;;
82147;SDS011;71718;50.480;12.110;2024-03-22T02:45:00;10.68;;;10.07;;
82147;SDS011;71718;50.480;12.110;2024-03-22T02:47:25;11.27;;;10.57;;
82147;SDS011;71718;50.480;12.110;2024-03-22T02:49:51;10.43;;;9.68;;
82147;SDS011;71718;50.480;12.110;2024-03-22T02:52:16;9.52;;;8.95;;
82147;SDS011;71718;50.480;12.110;2024-03-22T02:54:42;8.88;;;8.00;;
82147;SDS011;71718;50.480;12.110;2024-03-22T02:57:07;10.57;;;9.90;;
82147;SDS011;71718;50.480;12.110;2024-03-22T02:59:32;12.27;;;11.25;;
82147;SDS011;71718;50.480;12.110;2024-03-22T03:01:58;11.52;;;10.63;;
82147;SDS011;71718;50.480;12.110;2024-03-22T03:04:23;10.90;;;9.85;;
82147;SDS011;71718;50.480;12.110;2024-03-22T03:06:49;11.95;;;11.15;;
82147;SDS011;71718;50.480;12.110;2024-03-22T03:09:14;9.95;;;9.30;;
82147;SDS011;71718;50.480;12.110;2024-03-22T03:11:39;12.05;;;11.38;;
82147;SDS011;71718;50.480;12.110;2024-03-22T03:14:05;10.70;;;9.90;;
82147;SDS011;71718;50.480;12.110;2024-03-22T03:16:31;12.75;;;11.63;;
82147;SDS011;71718;50.480;12.110;2024-03-22T03:18:56;12.38;;;11.57;;
82147;SDS011;71718;50.480;12.110;2024-03-22T03:21:22;11.55;;;10.75;;
82147;SDS011;71718;50.480;12.110;2024-03-22T03:23:47;11.50;;;10.70;;
82147;SDS011;71718;50.480;12.110;2024-03-22T03:26:12;12.43;;;11.60;;
82147;SDS011;71718;50.480;12.110;2024-03-22T03:28:38;13.57;;;12.45;;
82147;SDS011;71718;50.480;12.110;2024-03-22T03:31:03;9.05;;;8.32;;
82147;SDS011;71718;50.480;12.110;2024-03-22T03:33:30;11.55;;;10.85;;
82147;SDS011;71718;50.480;12.110;2024-03-22T03:35:55;9.05;;;8.15;;
82147;SDS011;71718;50.480;12.110;2024-03-22T03:38:21;13.80;;;10.70;;
82147;SDS011;71718;50.480;12.110;2024-03-22T03:40:46;11.13;;;10.35;;
82147;SDS011;71718;50.480;12.110;2024-03-22T03:43:12;11.23;;;10.38;;
82147;SDS011;71718;50.480;12.110;2024-03-22T03:45:37;11.38;;;10.63;;
82147;SDS011;71718;50.480;12.110;2024-03-22T03:48:03;10.77;;;9.88;;
82147;SDS011;71718;50.480;12.110;2024-03-22T03:50:29;12.43;;;11.48;;
82147;SDS011;71718;50.480;12.110;2024-03-22T03:52:54;11.32;;;10.52;;
82147;SDS011;71718;50.480;12.110;2024-03-22T03:55:20;12.70;;;11.98;;
82147;SDS011;71718;50.480;12.110;2024-03-22T03:57:47;12.00;;;11.20;;
82147;SDS011;71718;50.480;12.110;2024-03-22T04:00:12;11.93;;;10.98;;
82147;SDS011;71718;50.480;12.110;2024-03-22T04:02:38;11.63;;;10.48;;
82147;SDS011;71718;50.480;12.110;2024-03-22T04:05:03;10.02;;;9.43;;
82147;SDS011;71718;50.480;12.110;2024-03-22T04:07:29;11.55;;;10.80;;
82147;SDS011;71718;50.480;12.110;2024-03-22T04:09:54;10.07;;;9.43;;
82147;SDS011;71718;50.480;12.110;2024-03-22T04:12:19;11.85;;;10.93;;
82147;SDS011;71718;50.480;12.110;2024-03-22T04:14:45;10.27;;;9.68;;
82147;SDS011;71718;50.480;12.110;2024-03-22T04:17:10;11.40;;;10.68;;
82147;SDS011;71718;50.480;12.110;2024-03-22T04:19:36;11.20;;;10.52;;
82147;SDS011;71718;50.480;12.110;2024-03-22T04:22:01;11.15;;;10.55;;
82147;SDS011;71718;50.480;12.110;2024-03-22T04:24:27;11.40;;;10.63;;
82147;SDS011;71718;50.480;12.110;2024-03-22T04:26:52;11.02;;;10.32;;
82147;SDS011;71718;50.480;12.110;2024-03-22T04:29:17;11.40;;;10.45;;
82147;SDS011;71718;50.480;12.110;2024-03-22T04:31:43;11.73;;;11.00;;
82147;SDS011;71718;50.480;12.110;2024-03-22T04:34:09;12.90;;;10.07;;
82147;SDS011;71718;50.480;12.110;2024-03-22T04:36:34;9.02;;;8.50;;
82147;SDS011;71718;50.480;12.110;2024-03-22T04:38:59;9.35;;;8.65;;
82147;SDS011;71718;50.480;12.110;2024-03-22T04:41:25;9.38;;;8.73;;
82147;SDS011;71718;50.480;12.110;2024-03-22T04:43:50;8.82;;;8.32;;
82147;SDS011;71718;50.480;12.110;2024-03-22T04:46:16;11.00;;;10.35;;
82147;SDS011;71718;50.480;12.110;2024-03-22T04:48:41;9.18;;;8.57;;
82147;SDS011;71718;50.480;12.110;2024-03-22T04:51:06;9.95;;;9.18;;
82147;SDS011;71718;50.480;12.110;2024-03-22T04:53:32;10.32;;;9.50;;
82147;SDS011;71718;50.480;12.110;2024-03-22T04:55:57;16.52;;;9.98;;
82147;SDS011;71718;50.480;12.110;2024-03-22T04:58:23;12.05;;;9.45;;
82147;SDS011;71718;50.480;12.110;2024-03-22T05:00:48;10.27;;;9.23;;
82147;SDS011;71718;50.480;12.110;2024-03-22T05:03:14;9.63;;;8.95;;
82147;SDS011;71718;50.480;12.110;2024-03-22T05:05:41;9.90;;;9.20;;
82147;SDS011;71718;50.480;12.110;2024-03-22T05:08:07;8.50;;;7.90;;
82147;SDS011;71718;50.480;12.110;2024-03-22T05:10:33;9.68;;;8.95;;
82147;SDS011;71718;50.480;12.110;2024-03-22T05:12:59;9.52;;;8.93;;
82147;SDS011;71718;50.480;12.110;2024-03-22T05:15:24;11.77;;;10.75;;
82147;SDS011;71718;50.480;12.110;2024-03-22T05:17:51;9.95;;;9.25;;
82147;SDS011;71718;50.480;12.110;2024-03-22T05:20:17;9.98;;;8.70;;
82147;SDS011;71718;50.480;12.110;2024-03-22T05:22:42;10.60;;;9.63;;
82147;SDS011;71718;50.480;12.110;2024-03-22T05:25:08;9.43;;;8.50;;
82147;SDS011;71718;50.480;12.110;2024-03-22T05:27:34;9.88;;;9.25;;
82147;SDS011;71718;50.480;12.110;2024-03-22T05:29:59;10.23;;;9.55;;
82147;SDS011;71718;50.480;12.110;2024-03-22T05:32:25;9.85;;;9.18;;
82147;SDS011;71718;50.480;12.110;2024-03-22T05:34:51;10.48;;;9.57;;
82147;SDS011;71718;50.480;12.110;2024-03-22T05:37:17;13.23;;;12.15;;
82147;SDS011;71718;50.480;12.110;2024-03-22T05:39:43;14.52;;;13.52;;
82147;SDS011;71718;50.480;12.110;2024-03-22T05:42:08;12.80;;;12.00;;
82147;SDS011;71718;50.480;12.110;2024-03-22T05:44:34;13.32;;;12.43;;
82147;SDS011;71718;50.480;12.110;2024-03-22T05:46:59;14.93;;;13.80;;
82147;SDS011;71718;50.480;12.110;2024-03-22T05:49:25;13.45;;;12.48;;
82147;SDS011;71718;50.480;12.110;2024-03-22T05:51:51;16.45;;;15.00;;
82147;SDS011;71718;50.480;12.110;2024-03-22T05:54:16;13.57;;;12.65;;
82147;SDS011;71718;50.480;12.110;2024-03-22T05:56:42;13.60;;;12.55;;
82147;SDS011;71718;50.480;12.110;2024-03-22T05:59:07;14.35;;;13.38;;
82147;SDS011;71718;50.480;12.110;2024-03-22T06:01:32;13.57;;;12.35;;
82147;SDS011;71718;50.480;12.110;2024-03-22T06:03:58;14.32;;;13.63;;
82147;SDS011;71718;50.480;12.110;2024-03-22T06:06:23;12.00;;;11.27;;
82147;SDS011;71718;50.480;12.110;2024-03-22T06:08:49;12.43;;;11.52;;
82147;SDS011;71718;50.480;12.110;2024-03-22T06:11:14;14.88;;;13.93;;
82147;SDS011;71718;50.480;12.110;2024-03-22T06:13:40;12.48;;;11.68;;
82147;SDS011;71718;50.480;12.110;2024-03-22T06:16:05;11.93;;;11.18;;
82147;SDS011;71718;50.480;12.110;2024-03-22T06:18:31;11.98;;;10.85;;
82147;SDS011;71718;50.480;12.110;2024-03-22T06:20:56;11.98;;;11.13;;
82147;SDS011;71718;50.480;12.110;2024-03-22T06:23:21;13.18;;;12.10;;
82147;SDS011;71718;50.480;12.110;2024-03-22T06:25:53;13.88;;;12.77;;
82147;SDS011;71718;50.480;12.110;2024-03-22T06:28:20;14.35;;;13.20;;
82147;SDS011;71718;50.480;12.110;2024-03-22T06:30:45;14.85;;;13.60;;
82147;SDS011;71718;50.480;12.110;2024-03-22T06:33:11;15.40;;;14.05;;
82147;SDS011;71718;50.480;12.110;2024-03-22T06:35:36;13.95;;;12.82;;
82147;SDS011;71718;50.480;12.110;2024-03-22T06:38:02;13.82;;;12.55;;
82147;SDS011;71718;50.480;12.110;2024-03-22T06:40:27;13.77;;;12.45;;
82147;SDS011;71718;50.480;12.110;2024-03-22T06:42:52;13.45;;;12.15;;
82147;SDS011;71718;50.480;12.110;2024-03-22T06:45:18;18.10;;;12.80;;
82147;SDS011;71718;50.480;12.110;2024-03-22T06:47:43;12.52;;;11.63;;
82147;SDS011;71718;50.480;12.110;2024-03-22T06:50:09;14.10;;;12.27;;
82147;SDS011;71718;50.480;12.110;2024-03-22T06:52:34;13.15;;;11.95;;
82147;SDS011;71718;50.480;12.110;2024-03-22T06:55:00;15.35;;;14.13;;
82147;SDS011;71718;50.480;12.110;2024-03-22T06:57:25;14.75;;;13.45;;
82147;SDS011;71718;50.480;12.110;2024-03-22T06:59:51;15.10;;;13.65;;
82147;SDS011;71718;50.480;12.110;2024-03-22T07:02:16;12.45;;;11.10;;
82147;SDS011;71718;50.480;12.110;2024-03-22T07:04:41;13.95;;;11.35;;
82147;SDS011;71718;50.480;12.110;2024-03-22T07:07:07;14.65;;;12.23;;
82147;SDS011;71718;50.480;12.110;2024-03-22T07:09:33;14.27;;;12.75;;
82147;SDS011;71718;50.480;12.110;2024-03-22T07:11:58;14.60;;;13.07;;
82147;SDS011;71718;50.480;12.110;2024-03-22T07:14:24;14.50;;;13.23;;
82147;SDS011;71718;50.480;12.110;2024-03-22T07:16:49;14.88;;;13.32;;
82147;SDS011;71718;50.480;12.110;2024-03-22T07:19:15;17.70;;;14.38;;
82147;SDS011;71718;50.480;12.110;2024-03-22T07:21:40;16.65;;;13.13;;
82147;SDS011;71718;50.480;12.110;2024-03-22T07:24:06;16.75;;;13.90;;
82147;SDS011;71718;50.480;12.110;2024-03-22T07:26:31;15.40;;;13.85;;
82147;SDS011;71718;50.480;12.110;2024-03-22T07:28:56;15.77;;;12.77;;
82147;SDS011;71718;50.480;12.110;2024-03-22T07:31:22;14.68;;;12.85;;
82147;SDS011;71718;50.480;12.110;2024-03-22T07:33:47;16.58;;;12.85;;
82147;SDS011;71718;50.480;12.110;2024-03-22T07:36:15;19.23;;;13.60;;
82147;SDS011;71718;50.480;12.110;2024-03-22T07:38:40;17.10;;;14.13;;
82147;SDS011;71718;50.480;12.110;2024-03-22T07:41:06;17.05;;;15.18;;
82147;SDS011;71718;50.480;12.110;2024-03-22T07:43:31;19.75;;;12.48;;
82147;SDS011;71718;50.480;12.110;2024-03-22T07:45:57;17.90;;;14.32;;
82147;SDS011;71718;50.480;12.110;2024-03-22T07:48:24;19.92;;;14.85;;
82147;SDS011;71718;50.480;12.110;2024-03-22T07:50:59;17.00;;;14.73;;
82147;SDS011;71718;50.480;12.110;2024-03-22T07:53:25;21.10;;;13.63;;
82147;SDS011;71718;50.480;12.110;2024-03-22T07:55:51;15.70;;;11.02;;
82147;SDS011;71718;50.480;12.110;2024-03-22T07:58:17;15.18;;;13.50;;
82147;SDS011;71718;50.480;12.110;2024-03-22T08:00:42;22.80;;;15.88;;
82147;SDS011;71718;50.480;12.110;2024-03-22T08:03:08;20.63;;;15.20;;
82147;SDS011;71718;50.480;12.110;2024-03-22T08:05:39;21.15;;;14.38;;
82147;SDS011;71718;50.480;12.110;2024-03-22T08:08:04;16.88;;;11.93;;
82147;SDS011;71718;50.480;12.110;2024-03-22T08:10:30;17.10;;;12.77;;
82147;SDS011;71718;50.480;12.110;2024-03-22T08:12:55;20.17;;;15.93;;
82147;SDS011;71718;50.480;12.110;2024-03-22T08:15:20;16.23;;;11.55;;
82147;SDS011;71718;50.480;12.110;2024-03-22T08:17:46;20.77;;;14.82;;
82147;SDS011;71718;50.480;12.110;2024-03-22T08:20:11;27.40;;;15.80;;
82147;SDS011;71718;50.480;12.110;2024-03-22T08:22:37;18.40;;;13.63;;
82147;SDS011;71718;50.480;12.110;2024-03-22T08:25:02;16.90;;;11.45;;
82147;SDS011;71718;50.480;12.110;2024-03-22T08:27:28;19.45;;;13.38;;
82147;SDS011;71718;50.480;12.110;2024-03-22T08:29:53;15.98;;;12.55;;
82147;SDS011;71718;50.480;12.110;2024-03-22T08:32:19;18.80;;;12.98;;
82147;SDS011;71718;50.480;12.110;2024-03-22T08:34:44;18.83;;;13.00;;
82147;SDS011;71718;50.480;12.110;2024-03-22T08:37:13;19.95;;;12.38;;
82147;SDS011;71718;50.480;12.110;2024-03-22T08:39:39;18.23;;;14.02;;
82147;SDS011;71718;50.480;12.110;2024-03-22T08:42:04;19.50;;;11.95;;
82147;SDS011;71718;50.480;12.110;2024-03-22T08:44:29;17.92;;;12.30;;
82147;SDS011;71718;50.480;12.110;2024-03-22T08:46:55;22.08;;;13.70;;
82147;SDS011;71718;50.480;12.110;2024-03-22T08:49:20;20.88;;;13.80;;
82147;SDS011;71718;50.480;12.110;2024-03-22T08:51:46;17.67;;;13.27;;
82147;SDS011;71718;50.480;12.110;2024-03-22T08:54:11;21.27;;;13.50;;
82147;SDS011;71718;50.480;12.110;2024-03-22T08:56:36;21.13;;;13.65;;
82147;SDS011;71718;50.480;12.110;2024-03-22T08:59:02;21.50;;;11.75;;
82147;SDS011;71718;50.480;12.110;2024-03-22T09:01:27;20.80;;;13.95;;
82147;SDS011;71718;50.480;12.110;2024-03-22T09:03:53;24.70;;;13.00;;
82147;SDS011;71718;50.480;12.110;2024-03-22T09:06:18;18.98;;;12.35;;
82147;SDS011;71718;50.480;12.110;2024-03-22T09:08:43;24.30;;;13.75;;
82147;SDS011;71718;50.480;12.110;2024-03-22T09:11:09;18.77;;;11.52;;
82147;SDS011;71718;50.480;12.110;2024-03-22T09:13:34;23.10;;;12.38;;
82147;SDS011;71718;50.480;12.110;2024-03-22T09:16:01;19.77;;;12.48;;
82147;SDS011;71718;50.480;12.110;2024-03-22T09:18:27;22.27;;;12.82;;
82147;SDS011;71718;50.480;12.110;2024-03-22T09:20:52;19.23;;;12.85;;
82147;SDS011;71718;50.480;12.110;2024-03-22T09:23:18;21.38;;;12.95;;
82147;SDS011;71718;50.480;12.110;2024-03-22T09:25:44;19.42;;;11.77;;
82147;SDS011;71718;50.480;12.110;2024-03-22T09:28:10;20.88;;;12.88;;
82147;SDS011;71718;50.480;12.110;2024-03-22T09:30:39;20.95;;;14.07;;
82147;SDS011;71718;50.480;12.110;2024-03-22T09:33:05;19.40;;;12.32;;
82147;SDS011;71718;50.480;12.110;2024-03-22T09:35:31;17.10;;;12.30;;
82147;SDS011;71718;50.480;12.110;2024-03-22T09:37:58;16.42;;;11.18;;
82147;SDS011;71718;50.480;12.110;2024-03-22T09:40:24;16.10;;;11.13;;
82147;SDS011;71718;50.480;12.110;2024-03-22T09:42:49;20.63;;;13.30;;
82147;SDS011;71718;50.480;12.110;2024-03-22T09:45:18;18.48;;;13.65;;
82147;SDS011;71718;50.480;12.110;2024-03-22T09:47:44;18.02;;;10.40;;
82147;SDS011;71718;50.480;12.110;2024-03-22T09:50:10;15.82;;;12.18;;
82147;SDS011;71718;50.480;12.110;2024-03-22T09:52:37;18.92;;;11.80;;
82147;SDS011;71718;50.480;12.110;2024-03-22T09:55:04;22.67;;;12.55;;
82147;SDS011;71718;50.480;12.110;2024-03-22T09:57:31;16.50;;;12.45;;
82147;SDS011;71718;50.480;12.110;2024-03-22T09:59:57;16.80;;;12.10;;
82147;SDS011;71718;50.480;12.110;2024-03-22T10:02:22;16.10;;;11.07;;
82147;SDS011;71718;50.480;12.110;2024-03-22T10:04:48;16.63;;;10.90;;
82147;SDS011;71718;50.480;12.110;2024-03-22T10:07:17;18.05;;;12.00;;
82147;SDS011;71718;50.480;12.110;2024-03-22T10:09:43;18.13;;;11.75;;
82147;SDS011;71718;50.480;12.110;2024-03-22T10:12:08;17.30;;;12.57;;
82147;SDS011;71718;50.480;12.110;2024-03-22T10:14:34;16.95;;;11.00;;
82147;SDS011;71718;50.480;12.110;2024-03-22T10:16:59;15.35;;;11.45;;
82147;SDS011;71718;50.480;12.110;2024-03-22T10:19:25;23.75;;;11.48;;
82147;SDS011;71718;50.480;12.110;2024-03-22T10:22:00;18.10;;;10.75;;
82147;SDS011;71718;50.480;12.110;2024-03-22T10:24:26;16.27;;;11.18;;
82147;SDS011;71718;50.480;12.110;2024-03-22T10:26:51;14.95;;;10.40;;
82147;SDS011;71718;50.480;12.110;2024-03-22T10:29:17;15.00;;;10.60;;
82147;SDS011;71718;50.480;12.110;2024-03-22T10:31:43;14.02;;;10.45;;
82147;SDS011;71718;50.480;12.110;2024-03-22T10:34:09;12.60;;;9.77;;
82147;SDS011;71718;50.480;12.110;2024-03-22T10:36:36;12.68;;;10.45;;
82147;SDS011;71718;50.480;12.110;2024-03-22T10:39:02;14.07;;;10.00;;
82147;SDS011;71718;50.480;12.110;2024-03-22T10:41:29;12.95;;;9.30;;
82147;SDS011;71718;50.480;12.110;2024-03-22T10:43:54;17.70;;;10.95;;
82147;SDS011;71718;50.480;12.110;2024-03-22T10:46:20;12.13;;;10.40;;
82147;SDS011;71718;50.480;12.110;2024-03-22T10:48:46;17.73;;;11.02;;
82147;SDS011;71718;50.480;12.110;2024-03-22T10:51:11;16.40;;;11.27;;
82147;SDS011;71718;50.480;12.110;2024-03-22T10:53:39;14.70;;;11.40;;
82147;SDS011;71718;50.480;12.110;2024-03-22T10:56:06;15.57;;;10.85;;
82147;SDS011;71718;50.480;12.110;2024-03-22T10:58:32;14.77;;;10.07;;
82147;SDS011;71718;50.480;12.110;2024-03-22T11:00:58;17.75;;;11.50;;
82147;SDS011;71718;50.480;12.110;2024-03-22T11:03:24;16.92;;;12.75;;
82147;SDS011;71718;50.480;12.110;2024-03-22T11:05:53;18.58;;;11.40;;
82147;SDS011;71718;50.480;12.110;2024-03-22T11:08:27;16.77;;;11.27;;
82147;SDS011;71718;50.480;12.110;2024-03-22T11:10:54;12.13;;;10.10;;
82147;SDS011;71718;50.480;12.110;2024-03-22T11:13:21;13.38;;;8.95;;
82147;SDS011;71718;50.480;12.110;2024-03-22T11:15:48;12.68;;;10.38;;
82147;SDS011;71718;50.480;12.110;2024-03-22T11:18:14;14.35;;;10.70;;
82147;SDS011;71718;50.480;12.110;2024-03-22T11:20:39;18.27;;;11.05;;
82147;SDS011;71718;50.480;12.110;2024-03-22T11:23:05;15.10;;;10.02;;
82147;SDS011;71718;50.480;12.110;2024-03-22T11:25:31;14.93;;;10.25;;
82147;SDS011;71718;50.480;12.110;2024-03-22T11:27:59;31.35;;;28.52;;
82147;SDS011;71718;50.480;12.110;2024-03-22T11:30:25;13.10;;;10.23;;
82147;SDS011;71718;50.480;12.110;2024-03-22T11:32:50;16.58;;;10.88;;
82147;SDS011;71718;50.480;12.110;2024-03-22T11:35:15;11.73;;;9.93;;
82147;SDS011;71718;50.480;12.110;2024-03-22T11:37:41;16.45;;;10.45;;
82147;SDS011;71718;50.480;12.110;2024-03-22T11:40:10;14.48;;;9.73;;
82147;SDS011;71718;50.480;12.110;2024-03-22T11:42:36;13.93;;;9.88;;
82147;SDS011;71718;50.480;12.110;2024-03-22T11:45:07;14.93;;;9.20;;
82147;SDS011;71718;50.480;12.110;2024-03-22T11:47:35;11.60;;;8.90;;
82147;SDS011;71718;50.480;12.110;2024-03-22T11:50:01;11.60;;;9.30;;
82147;SDS011;71718;50.480;12.110;2024-03-22T11:52:27;13.18;;;9.00;;
82147;SDS011;71718;50.480;12.110;2024-03-22T11:54:52;13.88;;;9.45;;
82147;SDS011;71718;50.480;12.110;2024-03-22T11:57:18;14.88;;;9.98;;
82147;SDS011;71718;50.480;12.110;2024-03-22T11:59:45;12.82;;;9.07;;
82147;SDS011;71718;50.480;12.110;2024-03-22T12:02:10;15.25;;;9.82;;
82147;SDS011;71718;50.480;12.110;2024-03-22T12:04:36;15.30;;;9.98;;
82147;SDS011;71718;50.480;12.110;2024-03-22T12:07:05;17.15;;;11.32;;
82147;SDS011;71718;50.480;12.110;2024-03-22T12:12:00;12.30;;;9.30;;
82147;SDS011;71718;50.480;12.110;2024-03-22T12:14:26;11.60;;;9.80;;
82147;SDS011;71718;50.480;12.110;2024-03-22T12:16:51;13.43;;;10.70;;
82147;SDS011;71718;50.480;12.110;2024-03-22T12:19:17;16.50;;;10.07;;
82147;SDS011;71718;50.480;12.110;2024-03-22T12:21:42;13.63;;;10.80;;
82147;SDS011;71718;50.480;12.110;2024-03-22T12:24:07;13.35;;;10.68;;
82147;SDS011;71718;50.480;12.110;2024-03-22T12:26:33;16.15;;;11.02;;
82147;SDS011;71718;50.480;12.110;2024-03-22T12:28:58;12.98;;;11.55;;
82147;SDS011;71718;50.480;12.110;2024-03-22T12:31:24;14.02;;;10.75;;
82147;SDS011;71718;50.480;12.110;2024-03-22T12:33:49;11.65;;;10.45;;
82147;SDS011;71718;50.480;12.110;2024-03-22T12:36:14;16.35;;;11.27;;
82147;SDS011;71718;50.480;12.110;2024-03-22T12:38:40;14.73;;;10.38;;
82147;SDS011;71718;50.480;12.110;2024-03-22T12:41:05;14.43;;;11.20;;
82147;SDS011;71718;50.480;12.110;2024-03-22T12:43:32;14.10;;;11.32;;
82147;SDS011;71718;50.480;12.110;2024-03-22T12:45:57;14.48;;;10.02;;
82147;SDS011;71718;50.480;12.110;2024-03-22T12:48:23;14.18;;;11.27;;
82147;SDS011;71718;50.480;12.110;2024-03-22T12:50:48;13.23;;;11.07;;
82147;SDS011;71718;50.480;12.110;2024-03-22T12:53:13;13.77;;;11.02;;
82147;SDS011;71718;50.480;12.110;2024-03-22T12:55:39;14.68;;;11.50;;
82147;SDS011;71718;50.480;12.110;2024-03-22T12:58:05;16.92;;;10.30;;
82147;SDS011;71718;50.480;12.110;2024-03-22T13:00:30;14.15;;;10.15;;
82147;SDS011;71718;50.480;12.110;2024-03-22T13:02:56;11.23;;;9.90;;
82147;SDS011;71718;50.480;12.110;2024-03-22T13:05:21;16.15;;;10.77;;
82147;SDS011;71718;50.480;12.110;2024-03-22T13:07:47;13.50;;;10.80;;
82147;SDS011;71718;50.480;12.110;2024-03-22T13:10:12;17.08;;;11.27;;
82147;SDS011;71718;50.480;12.110;2024-03-22T13:12:38;15.07;;;12.50;;
82147;SDS011;71718;50.480;12.110;2024-03-22T13:15:03;14.57;;;11.45;;
82147;SDS011;71718;50.480;12.110;2024-03-22T13:17:29;15.25;;;10.95;;
82147;SDS011;71718;50.480;12.110;2024-03-22T13:19:54;15.85;;;11.95;;
82147;SDS011;71718;50.480;12.110;2024-03-22T13:22:20;15.38;;;10.93;;
82147;SDS011;71718;50.480;12.110;2024-03-22T13:24:45;15.70;;;12.05;;
82147;SDS011;71718;50.480;12.110;2024-03-22T13:27:11;13.90;;;11.38;;
82147;SDS011;71718;50.480;12.110;2024-03-22T13:29:37;11.43;;;9.68;;
82147;SDS011;71718;50.480;12.110;2024-03-22T13:32:04;12.02;;;10.70;;
82147;SDS011;71718;50.480;12.110;2024-03-22T13:34:29;13.25;;;9.95;;
82147;SDS011;71718;50.480;12.110;2024-03-22T13:36:55;14.57;;;11.57;;
82147;SDS011;71718;50.480;12.110;2024-03-22T13:39:20;13.50;;;11.48;;
82147;SDS011;71718;50.480;12.110;2024-03-22T13:41:46;14.35;;;11.23;;
82147;SDS011;71718;50.480;12.110;2024-03-22T13:44:11;12.57;;;9.85;;
82147;SDS011;71718;50.480;12.110;2024-03-22T13:46:36;12.40;;;10.60;;
82147;SDS011;71718;50.480;12.110;2024-03-22T13:49:03;13.55;;;10.43;;
82147;SDS011;71718;50.480;12.110;2024-03-22T13:51:29;16.08;;;9.85;;
82147;SDS011;71718;50.480;12.110;2024-03-22T13:53:54;14.75;;;11.27;;
82147;SDS011;71718;50.480;12.110;2024-03-22T13:56:20;12.50;;;10.15;;
82147;SDS011;71718;50.480;12.110;2024-03-22T13:58:45;14.02;;;11.30;;
82147;SDS011;71718;50.480;12.110;2024-03-22T14:01:11;12.25;;;9.90;;
82147;SDS011;71718;50.480;12.110;2024-03-22T14:03:36;12.20;;;9.07;;
82147;SDS011;71718;50.480;12.110;2024-03-22T14:06:02;15.05;;;10.05;;
82147;SDS011;71718;50.480;12.110;2024-03-22T14:08:27;14.07;;;9.90;;